createdAt,value
2022-11-29T18:51:21.457Z,1017.16
2022-11-29T18:52:21.389Z,1017.14
2022-11-29T18:53:21.332Z,1017.16
2022-11-29T18:54:21.279Z,1017.20
2022-11-29T18:55:21.224Z,1017.18
2022-11-29T18:56:21.179Z,1017.18
2022-11-29T18:57:21.124Z,1017.19
2022-11-29T18:58:21.074Z,1017.19
2022-11-29T19:00:20.975Z,1017.16
2022-11-29T19:01:20.985Z,1017.17
2022-11-29T19:02:20.959Z,1017.19
2022-11-29T19:03:20.831Z,1017.19
2022-11-29T19:04:20.788Z,1017.19
2022-11-29T19:05:20.738Z,1017.20
2022-11-29T19:06:20.685Z,1017.20
2022-11-29T19:07:20.680Z,1017.23
2022-11-29T19:08:20.591Z,1017.29
2022-11-29T19:09:20.546Z,1017.26
2022-11-29T19:10:20.498Z,1017.30
2022-11-29T19:11:20.451Z,1017.29
2022-11-29T19:12:20.409Z,1017.33
2022-11-29T19:13:20.364Z,1017.33
2022-11-29T19:14:20.308Z,1017.28
2022-11-29T19:15:20.265Z,1017.29
2022-11-29T19:16:20.260Z,1017.32
2022-11-29T19:17:20.189Z,1017.32
2022-11-29T19:18:20.130Z,1017.34
2022-11-29T19:19:20.283Z,1017.37
2022-11-29T19:20:20.027Z,1017.36
2022-11-29T19:21:19.987Z,1017.37
2022-11-29T19:22:19.936Z,1017.38
2022-11-29T19:23:19.922Z,1017.39
2022-11-29T19:24:19.846Z,1017.34
2022-11-29T19:25:19.812Z,1017.34
2022-11-29T19:26:19.759Z,1017.36
2022-11-29T19:27:19.702Z,1017.38
2022-11-29T19:28:19.664Z,1017.35
2022-11-29T19:29:19.627Z,1017.39
2022-11-29T19:30:19.563Z,1017.36
2022-11-29T19:31:19.595Z,1017.37
2022-11-29T19:32:19.474Z,1017.37
2022-11-29T19:33:19.447Z,1017.39
2022-11-29T19:34:19.375Z,1017.38
2022-11-29T19:35:19.339Z,1017.40
2022-11-29T19:36:19.293Z,1017.42
2022-11-29T19:37:19.256Z,1017.44
2022-11-29T19:38:19.200Z,1017.43
2022-11-29T19:39:19.167Z,1017.43
2022-11-29T19:40:19.114Z,1017.48
2022-11-29T19:41:19.059Z,1017.42
2022-11-29T19:42:19.014Z,1017.44
2022-11-29T19:43:18.985Z,1017.44
2022-11-29T19:44:18.935Z,1017.47
2022-11-29T19:45:18.921Z,1017.48
2022-11-29T19:46:19.003Z,1017.45
2022-11-29T19:47:18.793Z,1017.51
2022-11-29T19:48:18.737Z,1017.41
2022-11-29T19:49:18.695Z,1017.45
2022-11-29T19:50:18.651Z,1017.45
2022-11-29T19:51:18.619Z,1017.47
2022-11-29T19:52:18.563Z,1017.44
2022-11-29T19:53:18.523Z,1017.45
2022-11-29T19:54:18.468Z,1017.40
2022-11-29T19:55:18.468Z,1017.41
2022-11-29T19:56:18.379Z,1017.43
2022-11-29T19:57:18.343Z,1017.43
2022-11-29T19:58:18.288Z,1017.46
2022-11-29T19:59:18.247Z,1017.47
2022-11-29T20:00:18.187Z,1017.47
2022-11-29T20:01:18.202Z,1017.48
2022-11-29T20:02:18.220Z,1017.49
2022-11-29T20:03:18.057Z,1017.50
2022-11-29T20:04:18.015Z,1017.49
2022-11-29T20:05:17.977Z,1017.52
2022-11-29T20:06:17.917Z,1017.52
2022-11-29T20:07:17.924Z,1017.54
2022-11-29T20:08:21.269Z,1017.54
2022-11-29T20:09:17.800Z,1017.57
2022-11-29T20:10:17.732Z,1017.56
2022-11-29T20:12:17.676Z,1017.57
2022-11-29T20:13:17.621Z,1017.64
2022-11-29T20:14:17.562Z,1017.62
2022-11-29T20:15:17.516Z,1017.65
2022-11-29T20:16:17.509Z,1017.67
2022-11-29T20:17:17.420Z,1017.66
2022-11-29T20:18:17.369Z,1017.69
2022-11-29T20:19:17.354Z,1017.69
2022-11-29T20:21:17.230Z,1017.70
2022-11-29T20:22:17.200Z,1017.75
2022-11-29T20:23:17.157Z,1017.69
2022-11-29T20:24:17.111Z,1017.71
2022-11-29T20:25:17.058Z,1017.72
2022-11-29T20:26:17.031Z,1017.70
2022-11-29T20:27:16.969Z,1017.69
2022-11-29T20:28:16.976Z,1017.73
2022-11-29T20:29:16.890Z,1017.75
2022-11-29T20:30:16.840Z,1017.77
2022-11-29T20:31:16.880Z,1017.72
2022-11-29T20:32:16.728Z,1017.70
2022-11-29T20:34:16.644Z,1017.74
2022-11-29T20:35:16.603Z,1017.72
2022-11-29T20:36:16.576Z,1017.71
2022-11-29T20:37:16.497Z,1017.70
2022-11-29T20:38:16.455Z,1017.76
2022-11-29T20:39:16.410Z,1017.73
2022-11-29T20:40:16.365Z,1017.73
2022-11-29T20:41:16.325Z,1017.76
2022-11-29T20:42:16.281Z,1017.78
2022-11-29T20:43:16.233Z,1017.75
2022-11-29T20:44:16.405Z,1017.78
2022-11-29T20:45:16.154Z,1017.76
2022-11-29T20:46:16.167Z,1017.79
2022-11-29T20:47:16.061Z,1017.82
2022-11-29T20:48:16.015Z,1017.83
2022-11-29T20:49:15.955Z,1017.85
2022-11-29T20:50:19.428Z,1017.80
2022-11-29T20:51:15.864Z,1017.82
2022-11-29T20:52:15.864Z,1017.81
2022-11-29T20:53:15.815Z,1017.83
2022-11-29T20:54:15.737Z,1017.81
2022-11-29T20:55:15.684Z,1017.83
2022-11-29T20:57:15.586Z,1017.80
2022-11-29T20:58:15.546Z,1017.80
2022-11-29T20:59:15.502Z,1017.80
2022-11-29T21:00:15.484Z,1017.80
2022-11-29T21:01:15.502Z,1017.81
2022-11-29T21:02:15.364Z,1017.84
2022-11-29T21:03:15.431Z,1017.82
2022-11-29T21:04:20.163Z,1017.83
2022-11-29T21:05:15.223Z,1017.87
2022-11-29T21:06:15.203Z,1017.82
2022-11-29T21:07:15.128Z,1017.87
2022-11-29T21:08:15.091Z,1017.83
2022-11-29T21:09:15.045Z,1017.88
2022-11-29T21:10:15.088Z,1017.88
2022-11-29T21:11:14.942Z,1017.92
2022-11-29T21:12:14.943Z,1017.91
2022-11-29T21:13:14.860Z,1017.89
2022-11-29T21:14:14.813Z,1017.88
2022-11-29T21:15:14.765Z,1017.93
2022-11-29T21:16:14.833Z,1017.90
2022-11-29T21:17:14.702Z,1017.88
2022-11-29T21:18:14.635Z,1017.88
2022-11-29T21:19:14.578Z,1017.89
2022-11-29T21:20:14.530Z,1017.84
2022-11-29T21:21:14.487Z,1017.85
2022-11-29T21:22:14.449Z,1017.88
2022-11-29T21:23:14.405Z,1017.85
2022-11-29T21:24:14.348Z,1017.87
2022-11-29T21:25:14.313Z,1017.88
2022-11-29T21:26:14.257Z,1017.89
2022-11-29T21:27:14.212Z,1017.86
2022-11-29T21:28:14.167Z,1017.92
2022-11-29T21:29:14.122Z,1017.87
2022-11-29T21:30:14.074Z,1017.90
2022-11-29T21:31:14.048Z,1017.90
2022-11-29T21:32:19.116Z,1017.91
2022-11-29T21:33:13.939Z,1017.92
2022-11-29T21:34:13.909Z,1017.91
2022-11-29T21:35:13.856Z,1017.90
2022-11-29T21:36:13.799Z,1017.95
2022-11-29T21:37:13.763Z,1017.94
2022-11-29T21:38:13.708Z,1017.92
2022-11-29T21:39:13.664Z,1017.95
2022-11-29T21:40:13.616Z,1017.91
2022-11-29T21:41:13.584Z,1017.91
2022-11-29T21:42:13.727Z,1017.89
2022-11-29T21:43:13.492Z,1017.89
2022-11-29T21:44:13.449Z,1017.85
2022-11-29T21:45:15.677Z,1017.91
2022-11-29T21:46:13.413Z,1017.90
2022-11-29T21:47:13.296Z,1017.95
2022-11-29T21:48:13.266Z,1017.93
2022-11-29T21:49:13.206Z,1017.97
2022-11-29T21:50:13.156Z,1017.99
2022-11-29T21:51:13.113Z,1017.94
2022-11-29T21:52:17.691Z,1017.95
2022-11-29T21:53:13.027Z,1017.90
2022-11-29T21:54:12.978Z,1017.94
2022-11-29T21:55:12.932Z,1017.92
2022-11-29T21:56:12.892Z,1017.96
2022-11-29T21:57:12.841Z,1017.94
2022-11-29T21:58:12.796Z,1017.92
2022-11-29T21:59:12.750Z,1017.95
2022-11-29T22:00:12.701Z,1017.96
2022-11-29T22:01:12.658Z,1017.97
2022-11-29T22:02:12.762Z,1017.95
2022-11-29T22:03:12.568Z,1017.96
2022-11-29T22:04:12.542Z,1017.97
2022-11-29T22:05:12.475Z,1018.00
2022-11-29T22:06:12.430Z,1018.09
2022-11-29T22:07:12.383Z,1018.02
2022-11-29T22:08:12.344Z,1018.00
2022-11-29T22:09:12.298Z,1018.04
2022-11-29T22:10:13.608Z,1017.99
2022-11-29T22:11:12.209Z,1018.04
2022-11-29T22:12:32.476Z,1018.04
2022-11-29T22:13:12.111Z,1018.03
2022-11-29T22:14:12.069Z,1018.03
2022-11-29T22:15:12.017Z,1018.02
2022-11-29T22:16:12.054Z,1018.06
2022-11-29T22:17:11.927Z,1018.02
2022-11-29T22:18:11.883Z,1018.03
2022-11-29T22:19:11.838Z,1018.06
2022-11-29T22:20:11.807Z,1018.06
2022-11-29T22:21:11.745Z,1018.06
2022-11-29T22:22:11.698Z,1018.05
2022-11-29T22:23:11.653Z,1018.04
2022-11-29T22:24:11.606Z,1018.06
2022-11-29T22:25:11.564Z,1018.07
2022-11-29T22:26:11.514Z,1018.04
2022-11-29T22:27:11.473Z,1018.02
2022-11-29T22:28:11.424Z,1018.02
2022-11-29T22:29:11.383Z,1018.06
2022-11-29T22:30:11.334Z,1017.98
2022-11-29T22:31:11.374Z,1018.02
2022-11-29T22:32:11.239Z,1018.01
2022-11-29T22:33:13.455Z,1018.02
2022-11-29T22:34:11.151Z,1018.01
2022-11-29T22:35:11.106Z,1018.00
2022-11-29T22:36:11.075Z,1017.98
2022-11-29T22:37:11.013Z,1018.01
2022-11-29T22:38:10.967Z,1018.04
2022-11-29T22:39:10.927Z,1018.05
2022-11-29T22:40:10.874Z,1018.02
2022-11-29T22:41:10.833Z,1018.05
2022-11-29T22:42:10.787Z,1018.03
2022-11-29T22:43:10.742Z,1018.03
2022-11-29T22:44:10.696Z,1018.05
2022-11-29T22:45:10.653Z,1018.06
2022-11-29T22:46:10.607Z,1018.06
2022-11-29T22:47:10.759Z,1018.05
2022-11-29T22:48:10.576Z,1018.06
2022-11-29T22:49:10.471Z,1018.05
2022-11-29T22:50:10.424Z,1018.06
2022-11-29T22:51:10.376Z,1018.06
2022-11-29T22:52:10.351Z,1018.04
2022-11-29T22:53:10.282Z,1018.04
2022-11-29T22:54:10.236Z,1018.05
2022-11-29T22:55:10.196Z,1018.03
2022-11-29T22:56:10.147Z,1018.08
2022-11-29T22:57:10.101Z,1017.99
2022-11-29T22:58:10.056Z,1017.99
2022-11-29T22:59:10.008Z,1017.99
2022-11-29T23:00:09.963Z,1018.00
2022-11-29T23:01:09.991Z,1017.98
2022-11-29T23:02:09.963Z,1017.98
2022-11-29T23:03:09.831Z,1017.99
2022-11-29T23:04:09.782Z,1017.96
2022-11-29T23:05:09.735Z,1017.99
2022-11-29T23:06:09.690Z,1017.97
2022-11-29T23:07:09.649Z,1018.02
2022-11-29T23:08:09.620Z,1018.00
2022-11-29T23:09:09.556Z,1017.98
2022-11-29T23:10:09.507Z,1017.99
2022-11-29T23:11:09.459Z,1018.01
2022-11-29T23:12:09.419Z,1018.00
2022-11-29T23:13:09.373Z,1018.02
2022-11-29T23:14:09.328Z,1018.02
